Aughton, United Kingdom

10:55 AM BST on August 29, 2014 (GMT +0100)
Aughton | Change Station
CLOSE
Current Station
Personal Weather Station
Location: Ormskirk, Lancashire
Elevation: 246 ft
Nearby Weather Stations

Elev 246 ft 53.55 °N, 2.91 °W | Updated 10 seconds ago

Scattered Clouds
Scattered Clouds
60.6 °F
Feels Like 60.6 °F
N
3.0
Wind Variable Wind from NNW
Gusts 4.0 mph

Today
High -- | Low -- °F
--% Chance of Precip.
Yesterday
High -- | Low -- °F
Precip. -- in
6:15 AM 8:08 PM
Waxing Crescent, 13% visible
Pressure 29.74 in
Visibility 6.2 miles
Clouds Few 2500 ft
Scattered Clouds 3300 ft
Dew Point 62 °F
Humidity 89%
Rainfall -999.00 in
Snow Depth Not available.
UV 4 out of 12
Pollen Not available.
Air Quality Not available.
Flu Activity Not available.
METAR EGGP 290950Z 21016KT 9999 VCSH FEW025 SCT033 16/13 Q1007

More Conditions Fewer Conditions

Pressure 29.74 in
Visibility 6.2 miles
Clouds Few 2500 ft
Scattered Clouds 3300 ft
Dew Point 62 °F
Humidity 89%
Rainfall -999.00 in
Snow Depth Not available.
UV 4 out of 12
Pollen Not available.
Air Quality Not available.
Flu Activity Not available.
METAR EGGP 290950Z 21016KT 9999 VCSH FEW025 SCT033 16/13 Q1007

More Conditions Fewer Conditions

10-Day Weather Forecast

Almanac

Astronomy

Aug. 29, 2014 Rise Set
Actual Time 6:15 AM BST 8:08 PM BST
Civil Twilight 5:37 AM BST 8:46 PM BST
Nautical Twilight 4:51 AM BST 9:32 PM BST
Astronomical Twilight 3:57 AM BST 10:25 PM BST
Moon 10:27 AM BST 9:18 PM BST
Length of Visible Light 15h 08m
Length of Day
13h 53m
Tomorrow will be 4m 6s shorter.
Waxing Crescent, 13% of the Moon is Illuminated
Today
Waxing Crescent
Sep 2
First Quarter
Sep 8
Full
Sep 15
Last Quarter
Sep 24
New

Yesterday's Extremes

Country Highs Country Lows

Community

WunderPhotos

Upload Photos

1,748,207 photos uploaded!

Nearby

Snow Depth

Not available.

Earthquake Activity

City Distance Mag. Time & Date
No recent earthquake activity has been reported nearby.
Minimum magnitude displayed is 2.5.

Coastal Water Temperatures

Place Temperature
No Stations Reporting

Nearby Weather Stations